Time;durP1;ratioP1;P1;durP2;ratioP2;P2;SDS_P1;SDS_P2;PMS_P1;PMS_P2;Temp;Humidity;BMP_temperature;BMP_pressure;BME280_temperature;BME280_humidity;BME280_pressure;Samples;Min_cycle;Max_cycle;Signal;HPM_P1;HPM_P2
2023/05/02 00:00:02;;;;;;;;;;;;;;;;;;1047060;28;1756;-46
2023/05/02 00:00:33;;;;;;;;;;;;;;;;;;1047213;28;3927;-50
2023/05/02 00:01:17;;;;;;;;;;;;;;;;;;1043405;28;2780;-48
2023/05/02 00:01:48;;;;;;;;;;;;;;;;;;1046174;28;4162;-47
2023/05/02 00:02:18;;;;;;;;;;;;;;;;;;1045508;28;1760;-50
2023/05/02 00:02:49;;;;;;;;;;;;;;;;;;1047051;28;3980;-49
2023/05/02 00:03:19;;;;;;;;;;;;;;;;;;1046478;28;2752;-48
2023/05/02 00:03:49;;;;;;;;;;;;;;;;;;1046781;28;3910;-47
2023/05/02 00:04:20;;;;;;;;;;;;;;;;;;1046282;28;2956;-52
2023/05/02 00:04:51;;;;;;;;;;;;;;;;;;1044030;28;3829;-47
2023/05/02 00:05:21;;;;;;;;;;;;;;;;;;1044788;28;2934;-48
2023/05/02 00:05:51;;;;;;;;;;;;;;;;;;1047061;28;3811;-50
2023/05/02 00:06:22;;;;;;;;;;;;;;;;;;1044293;28;2923;-48
2023/05/02 00:06:52;;;;;;;;;;;;;;;;;;1046220;28;3674;-48
2023/05/02 00:07:22;;;;;;;;;;;;;;;;;;1047853;28;2716;-48
2023/05/02 00:07:53;;;;;;;;;;;;;;;;;;1046564;28;4001;-47
2023/05/02 00:08:23;;;;;;;;;;;;;;;;;;1047933;28;1754;-45
2023/05/02 00:08:53;;;;;;;;;;;;;;;;;;1046425;28;3881;-50
2023/05/02 00:09:24;;;;;;;;;;;;;;;;;;1045808;28;1661;-49
2023/05/02 00:09:54;;;;;;;;;;;;;;;;;;1047187;28;3834;-47
2023/05/02 00:10:25;;;;;;;;;;;;;;;;;;1046706;28;4357;-48
2023/05/02 00:10:55;;;;;;;;;;;;;;;;;;1046861;28;1919;-48
2023/05/02 00:11:25;;;;;;;;;;;;;;;;;;1047259;28;3753;-50
2023/05/02 00:11:55;;;;;;;;;;;;;;;;;;1047279;28;1814;-48
2023/05/02 00:12:26;;;;;;;;;;;;;;;;;;1047069;28;3761;-50
2023/05/02 00:12:56;;;;;;;;;;;;;;;;;;1046129;28;2891;-45
2023/05/02 00:13:26;;;;;;;;;;;;;;;;;;1042761;28;4524;-49
2023/05/02 00:13:57;;;;;;;;;;;;;;;;;;1051416;28;2942;-46
2023/05/02 00:14:27;;;;;;;;;;;;;;;;;;1049275;28;3994;-46
2023/05/02 00:14:58;;;;;;;;;;;;;;;;;;1053192;28;3013;-49
2023/05/02 00:15:28;;;;;;;;;;;;;;;;;;1051922;28;4191;-47
2023/05/02 00:15:58;;;;;;;;;;;;;;;;;;1047715;28;2969;-50
2023/05/02 00:16:28;;;;;;;;;;;;;;;;;;1045870;28;3806;-45
2023/05/02 00:16:59;;;;;;;;;;;;;;;;;;1046153;28;3513;-48
2023/05/02 00:17:29;;;;;;;;;;;;;;;;;;1045328;28;3955;-46
2023/05/02 00:18:00;;;;;;;;;;;;;;;;;;1047760;28;1733;-48
2023/05/02 00:18:30;;;;;;;;;;;;;;;;;;1045271;28;4072;-47
2023/05/02 00:19:00;;;;;;;;;;;;;;;;;;1045168;28;2953;-48
2023/05/02 00:19:31;;;;;;;;;;;;;;;;;;1043621;28;4035;-49
2023/05/02 00:20:03;;;;;;;;;;;;;;;;;;1045752;28;3210;-48
2023/05/02 00:20:33;;;;;;;;;;;;;;;;;;1046129;28;3904;-45
2023/05/02 00:21:04;;;;;;;;;;;;;;;;;;1045176;28;2733;-47
2023/05/02 00:21:34;;;;;;;;;;;;;;;;;;1045952;28;4241;-47
2023/05/02 00:22:04;;;;;;;;;;;;;;;;;;1047421;28;1684;-48
2023/05/02 00:22:35;;;;;;;;;;;;;;;;;;1044598;28;3778;-48
2023/05/02 00:23:05;;;;;;;;;;;;;;;;;;1046002;28;3149;-47
2023/05/02 00:23:35;;;;;;;;;;;;;;;;;;1045987;28;4037;-49
2023/05/02 00:24:06;;;;;;;;;;;;;;;;;;1045798;28;3036;-46
2023/05/02 00:24:36;;;;;;;;;;;;;;;;;;1045631;28;3908;-47
2023/05/02 00:25:06;;;;;;;;;;;;;;;;;;1045524;28;2902;-45
2023/05/02 00:25:42;;;;;;;;;;;;;;;;;;1045970;28;4048;-49
2023/05/02 00:26:12;;;;;;;;;;;;;;;;;;1046190;28;3482;-47
2023/05/02 00:26:43;;;;;;;;;;;;;;;;;;1044918;28;4042;-46
2023/05/02 00:27:13;;;;;;;;;;;;;;;;;;1043664;28;4397;-46
2023/05/02 00:27:45;;;;;;;;;;;;;;;;;;1045544;28;4406;-47
2023/05/02 00:28:15;;;;;;;;;;;;;;;;;;1045166;28;2967;-49
2023/05/02 00:28:46;;;;;;;;;;;;;;;;;;1045925;28;3971;-48
2023/05/02 00:29:16;;;;;;;;;;;;;;;;;;1047181;28;2815;-45
2023/05/02 00:29:47;;;;;;;;;;;;;;;;;;1047483;28;3692;-46
2023/05/02 00:30:17;;;;;;;;;;;;;;;;;;1043700;28;3007;-46
2023/05/02 00:30:47;;;;;;;;;;;;;;;;;;1044115;28;3884;-48
2023/05/02 00:31:18;;;;;;;;;;;;;;;;;;1047762;28;2819;-46
2023/05/02 00:31:48;;;;;;;;;;;;;;;;;;1043910;28;3962;-47
2023/05/02 00:32:18;;;;;;;;;;;;;;;;;;1046699;28;2868;-49
2023/05/02 00:32:48;;;;;;;;;;;;;;;;;;1045820;28;4023;-46
2023/05/02 00:33:19;;;;;;;;;;;;;;;;;;1047364;28;2865;-50
2023/05/02 00:33:49;;;;;;;;;;;;;;;;;;1044881;28;3917;-46
2023/05/02 00:34:19;;;;;;;;;;;;;;;;;;1045682;28;1987;-48
2023/05/02 00:34:50;;;;;;;;;;;;;;;;;;1046041;28;3910;-47
2023/05/02 00:35:20;;;;;;;;;;;;;;;;;;1046453;28;1727;-49
2023/05/02 00:35:51;;;;;;;;;;;;;;;;;;1046077;28;3831;-48
2023/05/02 00:36:21;;;;;;;;;;;;;;;;;;1046772;28;2738;-50
2023/05/02 00:36:51;;;;;;;;;;;;;;;;;;1045527;28;3726;-46
2023/05/02 00:37:24;;;;;;;;;;;;;;;;;;1047388;28;1967;-49
2023/05/02 00:37:55;;;;;;;;;;;;;;;;;;1046714;28;3786;-48
2023/05/02 00:38:25;;;;;;;;;;;;;;;;;;1046347;28;4043;-48
2023/05/02 00:38:55;;;;;;;;;;;;;;;;;;1047703;28;1794;-46
2023/05/02 00:39:26;;;;;;;;;;;;;;;;;;1046412;28;4044;-46
2023/05/02 00:39:57;;;;;;;;;;;;;;;;;;1047574;28;1359;-46
2023/05/02 00:40:27;;;;;;;;;;;;;;;;;;1046840;28;3863;-46
2023/05/02 00:40:57;;;;;;;;;;;;;;;;;;1046386;28;2895;-46
2023/05/02 00:41:27;;;;;;;;;;;;;;;;;;1045339;28;4049;-47
2023/05/02 00:41:58;;;;;;;;;;;;;;;;;;1047422;28;1694;-47
2023/05/02 00:42:33;;;;;;;;;;;;;;;;;;1046607;28;3958;-49
2023/05/02 00:43:03;;;;;;;;;;;;;;;;;;1047582;28;1661;-47
2023/05/02 00:43:34;;;;;;;;;;;;;;;;;;1044257;28;3857;-48
2023/05/02 00:44:04;;;;;;;;;;;;;;;;;;1047726;28;2948;-46
2023/05/02 00:44:34;;;;;;;;;;;;;;;;;;1044376;28;3909;-48
2023/05/02 00:45:05;;;;;;;;;;;;;;;;;;1046781;28;3178;-48
2023/05/02 00:45:36;;;;;;;;;;;;;;;;;;1046040;28;4215;-46
2023/05/02 00:46:07;;;;;;;;;;;;;;;;;;1047308;28;2870;-46
2023/05/02 00:46:37;;;;;;;;;;;;;;;;;;1047004;28;3762;-47
2023/05/02 00:47:07;;;;;;;;;;;;;;;;;;1046165;28;2871;-47
2023/05/02 00:47:38;;;;;;;;;;;;;;;;;;1045477;28;4086;-48
2023/05/02 00:48:09;;;;;;;;;;;;;;;;;;1046929;28;3299;-45
2023/05/02 00:48:39;;;;;;;;;;;;;;;;;;1046130;28;3957;-46
2023/05/02 00:49:09;;;;;;;;;;;;;;;;;;1046417;28;2847;-45
2023/05/02 00:49:40;;;;;;;;;;;;;;;;;;1046766;28;3775;-48
2023/05/02 00:50:10;;;;;;;;;;;;;;;;;;1044619;28;3032;-47
2023/05/02 00:50:41;;;;;;;;;;;;;;;;;;1046409;28;3749;-49
2023/05/02 00:51:12;;;;;;;;;;;;;;;;;;1047650;28;1693;-49
2023/05/02 00:51:42;;;;;;;;;;;;;;;;;;1047159;28;4361;-48
2023/05/02 00:52:12;;;;;;;;;;;;;;;;;;1045541;28;2836;-46
2023/05/02 00:52:43;;;;;;;;;;;;;;;;;;1045694;28;3859;-48
2023/05/02 00:53:13;;;;;;;;;;;;;;;;;;1046963;28;2272;-51
2023/05/02 00:53:44;;;;;;;;;;;;;;;;;;1045869;28;3947;-47
2023/05/02 00:54:14;;;;;;;;;;;;;;;;;;1047330;28;1586;-48
2023/05/02 00:54:46;;;;;;;;;;;;;;;;;;1046824;28;3748;-48
2023/05/02 00:55:16;;;;;;;;;;;;;;;;;;1046609;28;1991;-46
2023/05/02 00:55:48;;;;;;;;;;;;;;;;;;1045742;28;3772;-49
2023/05/02 00:56:18;;;;;;;;;;;;;;;;;;1045949;28;3011;-46
2023/05/02 00:56:48;;;;;;;;;;;;;;;;;;1047076;28;3827;-47
2023/05/02 00:57:19;;;;;;;;;;;;;;;;;;1045275;28;2959;-45
2023/05/02 00:57:50;;;;;;;;;;;;;;;;;;1045728;28;3907;-46
2023/05/02 00:58:20;;;;;;;;;;;;;;;;;;1045764;28;3301;-47
2023/05/02 00:58:51;;;;;;;;;;;;;;;;;;1046074;28;3783;-48
2023/05/02 00:59:21;;;;;;;;;;;;;;;;;;1046141;28;3052;-48
2023/05/02 00:59:51;;;;;;;;;;;;;;;;;;1046142;28;3866;-51
2023/05/02 01:00:25;;;;;;;;;;;;;;;;;;1043455;28;3242;-51
2023/05/02 01:01:14;;;;;;;;;;;;;;;;;;1047256;28;3655;-47
2023/05/02 01:01:52;;;;;;;;;;;;;;;;;;1045943;28;5148;-45
2023/05/02 01:02:46;;;;;;;;;;;;;;;;;;1045725;28;2500;-46
2023/05/02 01:03:24;;;;;;;;;;;;;;;;;;1046209;28;3993;-52
2023/05/02 01:03:57;;;;;;;;;;;;;;;;;;1045748;28;3971;-48
2023/05/02 01:04:49;;;;;;;;;;;;;;;;;;1045693;28;3947;-45
2023/05/02 01:05:22;;;;;;;;;;;;;;;;;;1046733;28;1884;-49
2023/05/02 01:06:22;;;;;;;;;;;;;;;;;;1046413;28;3876;-48
2023/05/02 01:06:53;;;;;;;;;;;;;;;;;;1024628;28;3948;-51
2023/05/02 01:07:23;;;;;;;;;;;;;;;;;;1025547;28;3182;-50
2023/05/02 01:08:07;;;;;;;;;;;;;;;;;;1027292;28;4199;-46
2023/05/02 01:08:43;;;;;;;;;;;;;;;;;;1033075;28;4513;-48
2023/05/02 01:09:16;;;;;;;;;;;;;;;;;;1046135;28;1843;-46
2023/05/02 01:09:56;;;;;;;;;;;;;;;;;;1046300;28;3869;-49
2023/05/02 01:10:35;;;;;;;;;;;;;;;;;;1044653;28;4227;-46
2023/05/02 01:11:10;;;;;;;;;;;;;;;;;;1045360;28;2896;-49
2023/05/02 01:11:46;;;;;;;;;;;;;;;;;;1044843;28;3910;-48
2023/05/02 01:12:37;;;;;;;;;;;;;;;;;;1046733;28;3189;-48
2023/05/02 01:13:18;;;;;;;;;;;;;;;;;;1042286;28;3717;-46
2023/05/02 01:13:50;;;;;;;;;;;;;;;;;;1041028;28;3938;-45
2023/05/02 01:14:21;;;;;;;;;;;;;;;;;;1043153;28;2769;-45
2023/05/02 01:14:55;;;;;;;;;;;;;;;;;;1045799;28;3889;-47
2023/05/02 01:15:26;;;;;;;;;;;;;;;;;;1044865;28;4378;-48
2023/05/02 01:15:58;;;;;;;;;;;;;;;;;;1047549;28;1703;-47
2023/05/02 01:16:30;;;;;;;;;;;;;;;;;;1046431;28;4022;-49
2023/05/02 01:17:07;;;;;;;;;;;;;;;;;;1045944;28;2897;-48
2023/05/02 01:17:37;;;;;;;;;;;;;;;;;;1045695;28;4036;-49
2023/05/02 01:18:08;;;;;;;;;;;;;;;;;;1045751;28;2961;-48
2023/05/02 01:18:40;;;;;;;;;;;;;;;;;;1044251;28;3834;-51
2023/05/02 01:19:29;;;;;;;;;;;;;;;;;;1047319;28;1640;-46
2023/05/02 01:20:02;;;;;;;;;;;;;;;;;;1044021;28;3812;-53
2023/05/02 01:20:35;;;;;;;;;;;;;;;;;;1046470;28;3755;-46
2023/05/02 01:21:06;;;;;;;;;;;;;;;;;;1047292;28;1881;-48
2023/05/02 01:21:37;;;;;;;;;;;;;;;;;;1046165;28;3938;-50
2023/05/02 01:22:09;;;;;;;;;;;;;;;;;;1046941;28;2505;-48
2023/05/02 01:22:40;;;;;;;;;;;;;;;;;;1047061;28;3808;-49
2023/05/02 01:23:15;;;;;;;;;;;;;;;;;;1046410;28;2683;-49
2023/05/02 01:23:58;;;;;;;;;;;;;;;;;;1046163;28;3756;-46
2023/05/02 01:24:31;;;;;;;;;;;;;;;;;;1047278;28;4078;-46
2023/05/02 01:25:20;;;;;;;;;;;;;;;;;;1047283;28;2094;-46
2023/05/02 01:26:09;;;;;;;;;;;;;;;;;;1047004;28;3751;-49
2023/05/02 01:26:49;;;;;;;;;;;;;;;;;;1046392;28;3998;-51
2023/05/02 01:27:38;;;;;;;;;;;;;;;;;;1046395;28;2191;-47
2023/05/02 01:28:15;;;;;;;;;;;;;;;;;;1044316;28;3998;-46
2023/05/02 01:28:48;;;;;;;;;;;;;;;;;;1046757;28;3755;-49
2023/05/02 01:29:19;;;;;;;;;;;;;;;;;;1047139;28;2004;-49
2023/05/02 01:29:50;;;;;;;;;;;;;;;;;;1043368;28;3845;-46
2023/05/02 01:30:21;;;;;;;;;;;;;;;;;;1043993;28;2947;-46
2023/05/02 01:30:53;;;;;;;;;;;;;;;;;;1045812;28;3900;-50
2023/05/02 01:31:24;;;;;;;;;;;;;;;;;;1046271;28;1659;-52
2023/05/02 01:31:55;;;;;;;;;;;;;;;;;;1047246;28;3801;-45
2023/05/02 01:32:26;;;;;;;;;;;;;;;;;;1045443;28;4970;-49
2023/05/02 01:32:58;;;;;;;;;;;;;;;;;;1046191;28;2864;-46
2023/05/02 01:33:29;;;;;;;;;;;;;;;;;;1045924;28;4039;-46
2023/05/02 01:34:00;;;;;;;;;;;;;;;;;;1043201;28;1411;-51
2023/05/02 01:34:31;;;;;;;;;;;;;;;;;;1042094;28;3941;-45
2023/05/02 01:35:03;;;;;;;;;;;;;;;;;;1041293;28;1822;-47
2023/05/02 01:35:34;;;;;;;;;;;;;;;;;;1043857;28;3889;-46
2023/05/02 01:36:06;;;;;;;;;;;;;;;;;;1046843;28;1838;-47
2023/05/02 01:36:47;;;;;;;;;;;;;;;;;;1046037;28;3759;-48
2023/05/02 01:37:18;;;;;;;;;;;;;;;;;;1046481;28;1914;-48
2023/05/02 01:37:50;;;;;;;;;;;;;;;;;;1046496;28;3855;-49
2023/05/02 01:38:21;;;;;;;;;;;;;;;;;;1047557;28;1883;-45
2023/05/02 01:38:53;;;;;;;;;;;;;;;;;;1046100;28;3929;-46
2023/05/02 01:39:24;;;;;;;;;;;;;;;;;;1047593;28;1597;-51
2023/05/02 01:39:55;;;;;;;;;;;;;;;;;;1046139;28;3827;-46
2023/05/02 01:40:25;;;;;;;;;;;;;;;;;;1046472;28;3874;-48
2023/05/02 01:40:56;;;;;;;;;;;;;;;;;;1043448;28;1711;-47
2023/05/02 01:41:28;;;;;;;;;;;;;;;;;;1042323;28;4013;-46
2023/05/02 01:42:01;;;;;;;;;;;;;;;;;;1041840;28;2922;-46
2023/05/02 01:42:32;;;;;;;;;;;;;;;;;;1040429;28;3933;-48
2023/05/02 01:43:04;;;;;;;;;;;;;;;;;;1042144;28;3233;-47
2023/05/02 01:43:36;;;;;;;;;;;;;;;;;;1041981;28;4039;-46
2023/05/02 01:44:08;;;;;;;;;;;;;;;;;;1042544;28;2970;-49
2023/05/02 01:44:40;;;;;;;;;;;;;;;;;;1039297;28;3766;-46
2023/05/02 01:45:11;;;;;;;;;;;;;;;;;;1040874;28;2905;-49
2023/05/02 01:45:44;;;;;;;;;;;;;;;;;;1041620;28;3923;-49
2023/05/02 01:46:14;;;;;;;;;;;;;;;;;;1041847;28;1747;-47
2023/05/02 01:46:45;;;;;;;;;;;;;;;;;;1042515;28;3930;-47
2023/05/02 01:47:16;;;;;;;;;;;;;;;;;;1042164;28;2002;-49
2023/05/02 01:47:47;;;;;;;;;;;;;;;;;;1040603;28;3917;-46
2023/05/02 01:48:18;;;;;;;;;;;;;;;;;;1042710;28;2768;-45
2023/05/02 01:48:50;;;;;;;;;;;;;;;;;;1042483;28;3923;-48
2023/05/02 01:49:22;;;;;;;;;;;;;;;;;;1041459;28;2896;-49
2023/05/02 01:49:52;;;;;;;;;;;;;;;;;;1045074;28;3868;-45
2023/05/02 01:50:23;;;;;;;;;;;;;;;;;;1046729;28;2801;-45
2023/05/02 01:50:55;;;;;;;;;;;;;;;;;;1046340;28;3856;-51
2023/05/02 01:51:29;;;;;;;;;;;;;;;;;;1047223;28;4029;-47
2023/05/02 01:52:02;;;;;;;;;;;;;;;;;;1046132;28;2868;-49
2023/05/02 01:52:33;;;;;;;;;;;;;;;;;;1045458;28;3890;-45
2023/05/02 01:53:03;;;;;;;;;;;;;;;;;;1046154;28;1791;-47
2023/05/02 01:53:34;;;;;;;;;;;;;;;;;;1046897;28;4019;-46
2023/05/02 01:54:06;;;;;;;;;;;;;;;;;;1046697;28;2812;-46
2023/05/02 01:54:36;;;;;;;;;;;;;;;;;;1046417;28;4009;-49
2023/05/02 01:55:08;;;;;;;;;;;;;;;;;;1046340;28;2875;-46
2023/05/02 01:55:40;;;;;;;;;;;;;;;;;;1046604;28;3899;-48
2023/05/02 01:56:11;;;;;;;;;;;;;;;;;;1046937;28;1907;-46
2023/05/02 01:56:43;;;;;;;;;;;;;;;;;;1045466;28;4025;-47
2023/05/02 01:57:14;;;;;;;;;;;;;;;;;;1045786;28;2927;-48
2023/05/02 01:57:46;;;;;;;;;;;;;;;;;;1041711;28;3784;-45
2023/05/02 01:58:17;;;;;;;;;;;;;;;;;;1041511;28;3059;-51
2023/05/02 01:58:48;;;;;;;;;;;;;;;;;;1043133;28;3956;-45
2023/05/02 01:59:20;;;;;;;;;;;;;;;;;;1046014;28;2922;-53
2023/05/02 01:59:54;;;;;;;;;;;;;;;;;;1046763;28;3893;-49
2023/05/02 02:00:24;;;;;;;;;;;;;;;;;;1043258;28;3197;-47
2023/05/02 02:00:57;;;;;;;;;;;;;;;;;;1046410;28;3629;-47
2023/05/02 02:01:29;;;;;;;;;;;;;;;;;;1041679;28;4396;-47
2023/05/02 02:02:01;;;;;;;;;;;;;;;;;;1045739;28;2980;-46
2023/05/02 02:02:33;;;;;;;;;;;;;;;;;;1044165;28;3865;-47
2023/05/02 02:03:08;;;;;;;;;;;;;;;;;;1046591;28;3132;-48
2023/05/02 02:03:38;;;;;;;;;;;;;;;;;;1046202;28;4013;-45
2023/05/02 02:04:10;;;;;;;;;;;;;;;;;;1046178;28;2971;-48
2023/05/02 02:04:40;;;;;;;;;;;;;;;;;;1046063;28;3775;-48
2023/05/02 02:05:11;;;;;;;;;;;;;;;;;;1047103;28;3005;-45
2023/05/02 02:05:42;;;;;;;;;;;;;;;;;;1043432;28;4054;-49
2023/05/02 02:06:13;;;;;;;;;;;;;;;;;;1045660;28;2917;-48
2023/05/02 02:06:45;;;;;;;;;;;;;;;;;;1046387;28;4073;-47
2023/05/02 02:07:15;;;;;;;;;;;;;;;;;;1045737;28;1948;-48
2023/05/02 02:07:45;;;;;;;;;;;;;;;;;;1043510;28;3948;-53
2023/05/02 02:08:16;;;;;;;;;;;;;;;;;;1046566;28;3042;-45
2023/05/02 02:08:46;;;;;;;;;;;;;;;;;;1047592;28;4010;-52
2023/05/02 02:09:16;;;;;;;;;;;;;;;;;;1045480;28;2825;-52
2023/05/02 02:09:47;;;;;;;;;;;;;;;;;;1044614;28;4002;-46
2023/05/02 02:10:17;;;;;;;;;;;;;;;;;;1046357;28;1644;-45
2023/05/02 02:10:52;;;;;;;;;;;;;;;;;;1046862;28;3872;-45
2023/05/02 02:11:33;;;;;;;;;;;;;;;;;;1046092;28;2971;-47
2023/05/02 02:12:09;;;;;;;;;;;;;;;;;;1044315;28;3914;-49
2023/05/02 02:12:44;;;;;;;;;;;;;;;;;;1046066;28;3723;-50
2023/05/02 02:13:23;;;;;;;;;;;;;;;;;;1046192;28;3045;-49
2023/05/02 02:14:00;;;;;;;;;;;;;;;;;;1045765;28;3810;-47
2023/05/02 02:14:36;;;;;;;;;;;;;;;;;;1045938;28;3769;-47
2023/05/02 02:15:29;;;;;;;;;;;;;;;;;;1046646;28;2640;-48
2023/05/02 02:16:01;;;;;;;;;;;;;;;;;;1038984;28;5012;-47
2023/05/02 02:16:32;;;;;;;;;;;;;;;;;;1045527;28;3972;-49
2023/05/02 02:17:11;;;;;;;;;;;;;;;;;;1047382;28;1736;-46
2023/05/02 02:17:46;;;;;;;;;;;;;;;;;;1045065;28;4189;-45
2023/05/02 02:18:18;;;;;;;;;;;;;;;;;;1046596;28;1669;-48
2023/05/02 02:18:49;;;;;;;;;;;;;;;;;;1046034;28;3702;-48
2023/05/02 02:19:20;;;;;;;;;;;;;;;;;;1045178;28;2851;-49
2023/05/02 02:19:53;;;;;;;;;;;;;;;;;;1046036;28;4164;-49
2023/05/02 02:20:24;;;;;;;;;;;;;;;;;;1047620;28;1827;-47
2023/05/02 02:20:56;;;;;;;;;;;;;;;;;;1042673;28;3803;-51
2023/05/02 02:21:27;;;;;;;;;;;;;;;;;;1047139;28;4221;-54
2023/05/02 02:21:59;;;;;;;;;;;;;;;;;;1042248;28;2880;-46
2023/05/02 02:22:32;;;;;;;;;;;;;;;;;;1043347;28;3874;-46
2023/05/02 02:23:05;;;;;;;;;;;;;;;;;;1042376;28;3064;-49
2023/05/02 02:23:37;;;;;;;;;;;;;;;;;;1043469;28;4029;-49
2023/05/02 02:24:07;;;;;;;;;;;;;;;;;;1045531;28;2664;-48
2023/05/02 02:24:38;;;;;;;;;;;;;;;;;;1047395;28;4021;-48
2023/05/02 02:25:13;;;;;;;;;;;;;;;;;;1046601;28;2191;-50
2023/05/02 02:25:44;;;;;;;;;;;;;;;;;;1047846;28;3977;-48
2023/05/02 02:26:16;;;;;;;;;;;;;;;;;;1044254;28;2817;-48
2023/05/02 02:26:47;;;;;;;;;;;;;;;;;;1047680;28;3837;-49
2023/05/02 02:27:17;;;;;;;;;;;;;;;;;;1046669;28;2800;-47
2023/05/02 02:27:48;;;;;;;;;;;;;;;;;;1048124;28;3997;-48
2023/05/02 02:28:18;;;;;;;;;;;;;;;;;;1046390;28;2769;-49
2023/05/02 02:28:49;;;;;;;;;;;;;;;;;;1046756;28;3709;-46
2023/05/02 02:29:19;;;;;;;;;;;;;;;;;;1045067;28;2887;-47
2023/05/02 02:29:49;;;;;;;;;;;;;;;;;;1046583;28;3897;-51
2023/05/02 02:30:20;;;;;;;;;;;;;;;;;;1046006;28;2975;-49
2023/05/02 02:30:50;;;;;;;;;;;;;;;;;;1044510;28;3742;-50
2023/05/02 02:31:21;;;;;;;;;;;;;;;;;;1047864;28;1872;-49
2023/05/02 02:31:51;;;;;;;;;;;;;;;;;;1046464;28;3760;-50
2023/05/02 02:32:21;;;;;;;;;;;;;;;;;;1046923;28;2938;-46
2023/05/02 02:32:52;;;;;;;;;;;;;;;;;;1046695;28;3861;-50
2023/05/02 02:33:23;;;;;;;;;;;;;;;;;;1046433;28;2932;-50
2023/05/02 02:33:54;;;;;;;;;;;;;;;;;;1046526;28;4039;-49
2023/05/02 02:34:24;;;;;;;;;;;;;;;;;;1046583;28;3115;-47
2023/05/02 02:34:54;;;;;;;;;;;;;;;;;;1046085;28;3613;-47
2023/05/02 02:35:29;;;;;;;;;;;;;;;;;;1045305;28;4008;-50
2023/05/02 02:36:17;;;;;;;;;;;;;;;;;;1046839;28;2438;-52
2023/05/02 02:36:51;;;;;;;;;;;;;;;;;;1047135;28;3740;-47
2023/05/02 02:37:25;;;;;;;;;;;;;;;;;;1048185;28;1987;-48
2023/05/02 02:38:15;;;;;;;;;;;;;;;;;;1045697;28;3825;-50
2023/05/02 02:38:49;;;;;;;;;;;;;;;;;;1036557;28;3822;-45
2023/05/02 02:39:40;;;;;;;;;;;;;;;;;;1046615;28;2804;-48
2023/05/02 02:40:11;;;;;;;;;;;;;;;;;;1044990;28;3651;-49
2023/05/02 02:40:46;;;;;;;;;;;;;;;;;;1047863;28;4061;-49
2023/05/02 02:41:26;;;;;;;;;;;;;;;;;;1047227;28;2889;-49
2023/05/02 02:42:06;;;;;;;;;;;;;;;;;;1046847;28;3714;-47
2023/05/02 02:42:39;;;;;;;;;;;;;;;;;;1044933;28;3764;-45
2023/05/02 02:43:25;;;;;;;;;;;;;;;;;;1038959;28;2982;-47
2023/05/02 02:43:55;;;;;;;;;;;;;;;;;;1041051;28;3652;-47
2023/05/02 02:44:44;;;;;;;;;;;;;;;;;;1041199;28;3770;-46
2023/05/02 02:45:14;;;;;;;;;;;;;;;;;;1045472;28;2923;-48
2023/05/02 02:45:44;;;;;;;;;;;;;;;;;;1046202;28;4046;-48
2023/05/02 02:46:33;;;;;;;;;;;;;;;;;;1044355;28;3092;-45
2023/05/02 02:47:04;;;;;;;;;;;;;;;;;;1047148;28;3818;-46
2023/05/02 02:47:40;;;;;;;;;;;;;;;;;;1047133;28;3873;-48
2023/05/02 02:48:13;;;;;;;;;;;;;;;;;;1046933;28;2927;-54
2023/05/02 02:48:52;;;;;;;;;;;;;;;;;;1046411;28;4050;-50
2023/05/02 02:49:22;;;;;;;;;;;;;;;;;;1046256;28;3048;-45
2023/05/02 02:49:59;;;;;;;;;;;;;;;;;;1046076;28;3994;-45
2023/05/02 02:50:30;;;;;;;;;;;;;;;;;;1047211;28;3753;-46
2023/05/02 02:51:00;;;;;;;;;;;;;;;;;;1047676;28;1733;-47
2023/05/02 02:51:35;;;;;;;;;;;;;;;;;;1045683;28;4006;-48
2023/05/02 02:52:05;;;;;;;;;;;;;;;;;;1047772;28;1909;-47
2023/05/02 02:52:47;;;;;;;;;;;;;;;;;;1046868;28;3837;-49
2023/05/02 02:53:19;;;;;;;;;;;;;;;;;;1047632;28;2555;-51
2023/05/02 02:53:55;;;;;;;;;;;;;;;;;;1047479;28;3722;-46
2023/05/02 02:54:32;;;;;;;;;;;;;;;;;;1046913;28;4153;-46
2023/05/02 02:55:08;;;;;;;;;;;;;;;;;;1047254;28;1939;-48
2023/05/02 02:55:43;;;;;;;;;;;;;;;;;;1046308;28;4389;-50
2023/05/02 02:56:15;;;;;;;;;;;;;;;;;;1045764;28;2962;-48
2023/05/02 02:56:47;;;;;;;;;;;;;;;;;;1047632;28;3834;-49
2023/05/02 02:57:25;;;;;;;;;;;;;;;;;;1047160;28;2895;-49
2023/05/02 02:58:02;;;;;;;;;;;;;;;;;;1047827;28;3771;-48
2023/05/02 02:58:45;;;;;;;;;;;;;;;;;;1046464;28;3886;-45
2023/05/02 02:59:22;;;;;;;;;;;;;;;;;;1047771;28;1655;-48
2023/05/02 03:00:06;;;;;;;;;;;;;;;;;;1046517;28;3885;-51
2023/05/02 03:00:36;;;;;;;;;;;;;;;;;;1045634;28;4219;-47
2023/05/02 03:01:09;;;;;;;;;;;;;;;;;;1048059;28;1648;-46
2023/05/02 03:01:42;;;;;;;;;;;;;;;;;;1044676;28;3986;-47
2023/05/02 03:02:16;;;;;;;;;;;;;;;;;;1040593;28;2933;-52
2023/05/02 03:02:47;;;;;;;;;;;;;;;;;;1040815;28;3827;-48
2023/05/02 03:03:19;;;;;;;;;;;;;;;;;;1042378;28;2760;-50
2023/05/02 03:03:50;;;;;;;;;;;;;;;;;;1043218;28;3813;-53
2023/05/02 03:04:21;;;;;;;;;;;;;;;;;;1042412;28;2763;-46
2023/05/02 03:04:52;;;;;;;;;;;;;;;;;;1043310;28;3869;-47
2023/05/02 03:05:23;;;;;;;;;;;;;;;;;;1041414;28;2862;-48
2023/05/02 03:05:54;;;;;;;;;;;;;;;;;;1042035;28;3932;-46
2023/05/02 03:06:26;;;;;;;;;;;;;;;;;;1041339;28;2879;-45
2023/05/02 03:06:56;;;;;;;;;;;;;;;;;;1047184;28;3834;-50
2023/05/02 03:07:27;;;;;;;;;;;;;;;;;;1046989;28;4056;-47
2023/05/02 03:07:58;;;;;;;;;;;;;;;;;;1041363;28;2949;-45
2023/05/02 03:08:37;;;;;;;;;;;;;;;;;;1042935;28;4178;-48
2023/05/02 03:09:13;;;;;;;;;;;;;;;;;;1042525;28;1759;-46
2023/05/02 03:09:44;;;;;;;;;;;;;;;;;;1042399;28;3814;-47
2023/05/02 03:10:15;;;;;;;;;;;;;;;;;;1047338;28;2829;-48
2023/05/02 03:10:45;;;;;;;;;;;;;;;;;;1049341;28;3929;-47
2023/05/02 03:11:15;;;;;;;;;;;;;;;;;;1049300;28;2822;-49
2023/05/02 03:11:46;;;;;;;;;;;;;;;;;;1051260;28;3948;-46
2023/05/02 03:12:16;;;;;;;;;;;;;;;;;;1041459;28;1850;-47
2023/05/02 03:12:46;;;;;;;;;;;;;;;;;;1042560;28;3702;-45
2023/05/02 03:13:17;;;;;;;;;;;;;;;;;;1041314;28;2960;-47
2023/05/02 03:13:47;;;;;;;;;;;;;;;;;;1043212;28;3975;-50
2023/05/02 03:14:17;;;;;;;;;;;;;;;;;;1041604;28;2571;-47
2023/05/02 03:14:48;;;;;;;;;;;;;;;;;;1041998;28;3902;-48
2023/05/02 03:15:19;;;;;;;;;;;;;;;;;;1040110;28;2964;-48
2023/05/02 03:15:57;;;;;;;;;;;;;;;;;;1043084;28;4053;-46
2023/05/02 03:16:30;;;;;;;;;;;;;;;;;;1042754;28;3889;-49
2023/05/02 03:17:00;;;;;;;;;;;;;;;;;;1042152;28;2789;-46
2023/05/02 03:17:30;;;;;;;;;;;;;;;;;;1041842;28;4048;-53
2023/05/02 03:18:00;;;;;;;;;;;;;;;;;;1043296;28;3147;-48
2023/05/02 03:18:32;;;;;;;;;;;;;;;;;;1042658;28;3891;-50
2023/05/02 03:19:03;;;;;;;;;;;;;;;;;;1042707;28;2120;-48
2023/05/02 03:19:33;;;;;;;;;;;;;;;;;;1042535;28;3961;-46
2023/05/02 03:20:04;;;;;;;;;;;;;;;;;;1042412;28;2875;-51
2023/05/02 03:20:34;;;;;;;;;;;;;;;;;;1042305;28;4419;-49
2023/05/02 03:21:05;;;;;;;;;;;;;;;;;;1040623;28;2951;-49
2023/05/02 03:21:35;;;;;;;;;;;;;;;;;;1041553;28;3945;-46
2023/05/02 03:22:05;;;;;;;;;;;;;;;;;;1043803;28;2021;-48
2023/05/02 03:22:36;;;;;;;;;;;;;;;;;;1042792;28;3774;-45
2023/05/02 03:23:06;;;;;;;;;;;;;;;;;;1042062;28;2999;-46
2023/05/02 03:23:36;;;;;;;;;;;;;;;;;;1043511;28;3998;-49
2023/05/02 03:24:06;;;;;;;;;;;;;;;;;;1043253;28;1884;-47
2023/05/02 03:24:37;;;;;;;;;;;;;;;;;;1042323;28;3802;-46
2023/05/02 03:25:07;;;;;;;;;;;;;;;;;;1039826;28;2980;-46
2023/05/02 03:25:37;;;;;;;;;;;;;;;;;;1039382;28;3787;-49
2023/05/02 03:26:08;;;;;;;;;;;;;;;;;;1041199;28;2915;-48
2023/05/02 03:26:38;;;;;;;;;;;;;;;;;;1042909;28;4173;-47
2023/05/02 03:27:08;;;;;;;;;;;;;;;;;;1042336;28;2969;-48
2023/05/02 03:27:38;;;;;;;;;;;;;;;;;;1043093;28;3876;-50
2023/05/02 03:28:09;;;;;;;;;;;;;;;;;;1043043;28;1600;-45
2023/05/02 03:28:40;;;;;;;;;;;;;;;;;;1042103;28;3760;-48
2023/05/02 03:29:10;;;;;;;;;;;;;;;;;;1041914;28;3027;-48
2023/05/02 03:29:41;;;;;;;;;;;;;;;;;;1041636;28;4183;-47
2023/05/02 03:30:11;;;;;;;;;;;;;;;;;;1041085;28;3010;-47
2023/05/02 03:30:41;;;;;;;;;;;;;;;;;;1041352;28;3945;-50
2023/05/02 03:31:13;;;;;;;;;;;;;;;;;;1043387;28;2943;-47
2023/05/02 03:31:43;;;;;;;;;;;;;;;;;;1042507;28;4305;-49
2023/05/02 03:32:13;;;;;;;;;;;;;;;;;;1043306;28;1871;-47
2023/05/02 03:32:44;;;;;;;;;;;;;;;;;;1042708;28;3848;-51
2023/05/02 03:33:14;;;;;;;;;;;;;;;;;;1042705;28;2978;-45
2023/05/02 03:33:45;;;;;;;;;;;;;;;;;;1041848;28;3879;-50
2023/05/02 03:34:15;;;;;;;;;;;;;;;;;;1042158;28;1895;-46
2023/05/02 03:34:45;;;;;;;;;;;;;;;;;;1042464;28;3963;-46
2023/05/02 03:35:16;;;;;;;;;;;;;;;;;;1041039;28;2875;-48
2023/05/02 03:35:46;;;;;;;;;;;;;;;;;;1042266;28;4057;-45
2023/05/02 03:36:17;;;;;;;;;;;;;;;;;;1043939;28;1774;-46
2023/05/02 03:36:47;;;;;;;;;;;;;;;;;;1042704;28;4124;-51
2023/05/02 03:37:17;;;;;;;;;;;;;;;;;;1042473;28;2659;-47
2023/05/02 03:37:48;;;;;;;;;;;;;;;;;;1042816;28;3974;-48
2023/05/02 03:38:18;;;;;;;;;;;;;;;;;;1042475;28;1648;-50
2023/05/02 03:38:48;;;;;;;;;;;;;;;;;;1042382;28;3998;-45
2023/05/02 03:39:19;;;;;;;;;;;;;;;;;;1042842;28;1722;-49
2023/05/02 03:39:49;;;;;;;;;;;;;;;;;;1042720;28;3915;-50
2023/05/02 03:40:20;;;;;;;;;;;;;;;;;;1041860;28;2894;-46
2023/05/02 03:40:50;;;;;;;;;;;;;;;;;;1042300;28;3760;-50
2023/05/02 03:41:21;;;;;;;;;;;;;;;;;;1041172;28;2876;-48
2023/05/02 03:41:52;;;;;;;;;;;;;;;;;;1043039;28;3891;-45
2023/05/02 03:42:22;;;;;;;;;;;;;;;;;;1042503;28;2051;-50
2023/05/02 03:42:52;;;;;;;;;;;;;;;;;;1041687;28;3794;-49
2023/05/02 03:43:22;;;;;;;;;;;;;;;;;;1042746;28;1735;-47
2023/05/02 03:43:53;;;;;;;;;;;;;;;;;;1041621;28;3997;-48
2023/05/02 03:44:23;;;;;;;;;;;;;;;;;;1041548;28;1887;-47
2023/05/02 03:44:53;;;;;;;;;;;;;;;;;;1042628;28;3731;-47
2023/05/02 03:45:24;;;;;;;;;;;;;;;;;;1040945;28;2946;-48